createdAt,value
2022-08-20T00:00:53.382Z,22.45
2022-08-20T00:03:32.991Z,18.42
2022-08-20T00:06:10.432Z,19.65
2022-08-20T00:08:38.149Z,20.65
2022-08-20T00:11:14.472Z,21.95
2022-08-20T00:13:54.462Z,19.88
2022-08-20T00:16:29.486Z,21.00
2022-08-20T00:19:03.455Z,20.20
2022-08-20T00:21:31.423Z,16.50
2022-08-20T00:23:58.393Z,20.00
2022-08-20T00:26:31.392Z,19.83
2022-08-20T00:28:58.036Z,19.30
2022-08-20T00:31:24.717Z,20.20
2022-08-20T00:33:58.449Z,19.63
2022-08-20T00:36:32.778Z,20.63
2022-08-20T00:39:06.399Z,19.65
2022-08-20T00:41:33.083Z,19.23
2022-08-20T00:44:14.463Z,21.08
2022-08-20T00:46:42.391Z,19.58
2022-08-20T00:49:14.044Z,19.05
2022-08-20T00:51:59.547Z,17.45
2022-08-20T00:54:46.454Z,18.55
2022-08-20T00:58:00.680Z,17.83
2022-08-20T01:00:33.893Z,15.27
2022-08-20T01:03:08.408Z,16.55
2022-08-20T01:05:47.476Z,16.85
2022-08-20T01:08:23.446Z,16.85
2022-08-20T01:10:53.679Z,17.45
2022-08-20T01:15:58.244Z,18.63
2022-08-20T01:18:27.362Z,17.40
2022-08-20T01:21:02.479Z,17.25
2022-08-20T01:24:07.473Z,17.17
2022-08-20T01:26:47.455Z,15.13
2022-08-20T01:29:25.470Z,15.95
2022-08-20T01:31:52.162Z,17.60
2022-08-20T01:34:27.425Z,17.63
2022-08-20T01:36:56.329Z,18.33
2022-08-20T01:39:36.528Z,21.48
2022-08-20T01:44:53.416Z,20.42
2022-08-20T01:47:38.501Z,19.23
2022-08-20T01:50:24.645Z,17.85
2022-08-20T01:53:24.477Z,16.30
2022-08-20T01:55:57.410Z,15.15
2022-08-20T01:58:31.400Z,17.35
2022-08-20T02:01:05.618Z,16.05
2022-08-20T02:03:37.516Z,15.48
2022-08-20T02:06:13.429Z,15.43
2022-08-20T02:08:40.059Z,16.17
2022-08-20T02:11:20.397Z,15.55
2022-08-20T02:13:49.614Z,14.75
2022-08-20T02:16:22.478Z,15.85
2022-08-20T02:18:54.277Z,15.73
2022-08-20T02:21:34.499Z,18.15
2022-08-20T02:26:37.795Z,16.02
2022-08-20T02:29:16.424Z,17.90
2022-08-20T02:32:32.668Z,17.73
2022-08-20T02:34:38.418Z,16.33
2022-08-20T02:37:06.914Z,16.90
2022-08-20T02:39:40.455Z,15.68
2022-08-20T02:42:07.266Z,15.98
2022-08-20T02:44:40.453Z,18.35
2022-08-20T02:47:14.482Z,17.60
2022-08-20T02:49:41.159Z,18.05
2022-08-20T02:52:13.833Z,17.05
2022-08-20T02:54:47.500Z,17.98
2022-08-20T02:57:22.440Z,17.60
2022-08-20T02:59:58.457Z,21.75
2022-08-20T03:02:25.290Z,22.88
2022-08-20T03:04:58.480Z,23.88
2022-08-20T03:07:25.218Z,32.85
2022-08-20T03:09:51.837Z,34.08
2022-08-20T03:12:25.483Z,30.80
2022-08-20T03:14:52.100Z,34.55
2022-08-20T03:17:18.744Z,39.58
2022-08-20T03:19:51.466Z,37.45
2022-08-20T03:22:18.086Z,32.10
2022-08-20T03:24:51.484Z,36.60
2022-08-20T03:27:21.585Z,37.35
2022-08-20T03:29:59.486Z,40.40
2022-08-20T03:32:26.712Z,41.22
2022-08-20T03:34:53.950Z,34.88
2022-08-20T03:37:27.515Z,39.38
2022-08-20T03:40:00.530Z,36.78
2022-08-20T03:42:27.402Z,38.72
2022-08-20T03:45:00.472Z,36.63
2022-08-20T03:47:27.943Z,36.60
2022-08-20T03:50:06.459Z,34.00
2022-08-20T03:52:39.438Z,35.22
2022-08-20T03:55:14.420Z,33.05
2022-08-20T03:57:58.625Z,31.65
2022-08-20T04:00:43.471Z,33.15
2022-08-20T04:03:10.985Z,29.58
2022-08-20T04:05:40.703Z,31.02
2022-08-20T04:08:23.417Z,30.23
2022-08-20T04:10:51.413Z,31.85
2022-08-20T04:13:27.492Z,32.05
2022-08-20T04:15:57.566Z,32.38
2022-08-20T04:18:32.462Z,29.60
2022-08-20T04:20:59.092Z,31.75
2022-08-20T04:23:32.480Z,30.95
2022-08-20T04:26:05.434Z,32.75
2022-08-20T04:28:33.703Z,32.28
2022-08-20T04:31:01.303Z,33.30
2022-08-20T04:33:38.485Z,31.98
2022-08-20T04:36:06.237Z,30.65
2022-08-20T04:38:49.908Z,33.47
2022-08-20T04:41:25.480Z,34.17
2022-08-20T04:43:54.471Z,34.25
2022-08-20T04:46:23.850Z,32.67
2022-08-20T04:48:57.498Z,38.10
2022-08-20T04:51:45.490Z,32.15
2022-08-20T04:54:14.504Z,33.25
2022-08-20T04:56:47.428Z,32.22
2022-08-20T04:59:14.737Z,34.58
2022-08-20T05:01:48.654Z,33.92
2022-08-20T05:04:15.298Z,31.17
2022-08-20T05:06:41.953Z,36.47
2022-08-20T05:09:15.430Z,36.72
2022-08-20T05:11:50.437Z,31.33
2022-08-20T05:14:17.073Z,33.30
2022-08-20T05:16:43.708Z,31.42
2022-08-20T05:19:19.424Z,32.53
2022-08-20T05:21:46.038Z,33.22
2022-08-20T05:24:12.956Z,32.55
2022-08-20T05:26:46.427Z,32.40
2022-08-20T05:29:13.149Z,32.40
2022-08-20T05:31:39.794Z,33.30
2022-08-20T05:34:16.449Z,36.83
2022-08-20T05:36:59.382Z,30.63
2022-08-20T05:39:37.371Z,30.45
2022-08-20T05:42:04.410Z,33.65
2022-08-20T05:44:31.460Z,29.27
2022-08-20T05:47:04.501Z,29.48
2022-08-20T05:49:31.577Z,31.38
2022-08-20T05:52:12.429Z,30.52
2022-08-20T05:54:39.855Z,27.70
2022-08-20T05:57:13.521Z,27.67
2022-08-20T05:59:40.322Z,30.75
2022-08-20T06:02:33.446Z,31.05
2022-08-20T06:05:00.517Z,30.67
2022-08-20T06:07:27.154Z,30.02
2022-08-20T06:10:00.433Z,30.65
2022-08-20T06:12:27.082Z,34.72
2022-08-20T06:15:00.268Z,32.90
2022-08-20T06:17:39.425Z,31.13
2022-08-20T06:20:15.495Z,30.80
2022-08-20T06:22:49.437Z,35.00
2022-08-20T06:25:16.112Z,34.17
2022-08-20T06:27:50.504Z,36.15
2022-08-20T06:30:18.045Z,35.03
2022-08-20T06:32:52.489Z,34.92
2022-08-20T06:35:20.094Z,34.67
2022-08-20T06:37:47.453Z,35.70
2022-08-20T06:40:26.462Z,35.97
2022-08-20T06:42:53.187Z,34.83
2022-08-20T06:45:32.494Z,34.50
2022-08-20T06:48:01.267Z,35.67
2022-08-20T06:50:47.972Z,33.05
2022-08-20T06:53:31.435Z,36.35
2022-08-20T06:55:59.290Z,33.53
2022-08-20T06:58:38.260Z,36.60
2022-08-20T07:01:16.576Z,38.75
2022-08-20T07:03:55.359Z,30.88
2022-08-20T07:06:25.333Z,35.10
2022-08-20T07:08:58.527Z,37.35
2022-08-20T07:11:28.212Z,38.45
2022-08-20T07:16:30.452Z,34.72
2022-08-20T07:18:58.225Z,37.40
2022-08-20T07:21:25.625Z,37.60
2022-08-20T07:23:59.481Z,37.55
2022-08-20T07:26:26.122Z,44.35
2022-08-20T07:28:53.121Z,39.78
2022-08-20T07:31:44.521Z,37.70
2022-08-20T07:34:14.804Z,40.08
2022-08-20T07:36:48.488Z,42.38
2022-08-20T07:39:21.466Z,33.83
2022-08-20T07:42:02.962Z,43.25
2022-08-20T07:44:37.512Z,41.55
2022-08-20T07:47:13.530Z,42.40
2022-08-20T07:49:46.497Z,37.83
2022-08-20T07:52:33.435Z,38.03
2022-08-20T07:55:06.504Z,37.88
2022-08-20T07:57:39.551Z,38.13
2022-08-20T08:00:08.884Z,37.60
2022-08-20T08:02:42.448Z,40.60
2022-08-20T08:05:10.006Z,35.88
2022-08-20T08:07:44.483Z,39.08
2022-08-20T08:10:17.038Z,36.85
2022-08-20T08:12:54.524Z,42.30
2022-08-20T08:15:28.807Z,39.85
2022-08-20T08:18:07.535Z,39.42
2022-08-20T08:20:48.506Z,45.05
2022-08-20T08:23:24.859Z,42.45
2022-08-20T08:25:59.277Z,39.28
2022-08-20T08:28:36.511Z,45.95
2022-08-20T08:31:03.262Z,42.50
2022-08-20T08:33:38.485Z,43.33
2022-08-20T08:36:11.285Z,38.40
2022-08-20T08:38:47.519Z,39.78
2022-08-20T08:41:31.889Z,41.42
2022-08-20T08:44:31.501Z,42.03
2022-08-20T08:47:20.499Z,36.60
2022-08-20T08:49:48.116Z,41.22
2022-08-20T08:52:30.502Z,42.55
2022-08-20T08:55:18.489Z,41.65
2022-08-20T08:57:53.520Z,41.55
2022-08-20T09:00:21.734Z,38.15
2022-08-20T09:03:14.538Z,45.17
2022-08-20T09:05:59.502Z,42.72
2022-08-20T09:08:31.126Z,40.08
2022-08-20T09:11:12.538Z,41.75
2022-08-20T09:13:45.446Z,41.83
2022-08-20T09:16:13.251Z,41.30
2022-08-20T09:18:40.860Z,45.78
2022-08-20T09:21:14.521Z,39.35
2022-08-20T09:23:42.112Z,40.70
2022-08-20T09:26:15.511Z,45.38
2022-08-20T09:28:52.126Z,44.08
2022-08-20T09:31:25.462Z,41.08
2022-08-20T09:33:53.008Z,46.28
2022-08-20T09:36:32.154Z,39.40
2022-08-20T09:38:59.562Z,41.35
2022-08-20T09:41:26.184Z,43.28
2022-08-20T09:43:59.497Z,41.95
2022-08-20T09:46:27.407Z,40.95
2022-08-20T09:49:01.516Z,46.55
2022-08-20T09:51:48.456Z,42.67
2022-08-20T09:54:21.438Z,43.55
2022-08-20T09:56:48.757Z,44.00
2022-08-20T09:59:16.302Z,41.13
2022-08-20T10:01:49.552Z,43.50
2022-08-20T10:04:16.214Z,38.10
2022-08-20T10:06:43.120Z,37.95
2022-08-20T10:09:16.554Z,40.83
2022-08-20T10:11:49.505Z,43.90
2022-08-20T10:14:16.130Z,41.92
2022-08-20T10:16:49.456Z,43.60
2022-08-20T10:19:16.590Z,40.58
2022-08-20T10:21:43.310Z,43.35
2022-08-20T10:24:16.470Z,46.38
2022-08-20T10:26:43.094Z,40.42
2022-08-20T10:29:16.480Z,39.42
2022-08-20T10:31:50.460Z,41.50
2022-08-20T10:34:17.173Z,45.53
2022-08-20T10:36:43.931Z,46.22
2022-08-20T10:39:17.529Z,41.45
2022-08-20T10:41:44.162Z,39.70
2022-08-20T10:44:10.774Z,40.75
2022-08-20T10:46:44.528Z,43.00
2022-08-20T10:49:12.173Z,40.40
2022-08-20T10:51:45.474Z,42.13
2022-08-20T10:54:27.479Z,41.08
2022-08-20T10:56:54.105Z,37.75
2022-08-20T10:59:20.751Z,37.67
2022-08-20T11:01:53.530Z,38.72
2022-08-20T11:04:20.197Z,39.80
2022-08-20T11:06:53.542Z,43.92
2022-08-20T11:09:20.154Z,40.70
2022-08-20T11:11:53.468Z,40.20
2022-08-20T11:14:26.538Z,39.05
2022-08-20T11:16:59.507Z,36.03
2022-08-20T11:19:26.174Z,35.28
2022-08-20T11:21:59.525Z,35.92
2022-08-20T11:24:26.158Z,33.58
2022-08-20T11:26:53.389Z,34.88
2022-08-20T11:29:33.830Z,36.63
2022-08-20T11:32:00.790Z,36.05
2022-08-20T11:34:27.554Z,34.70
2022-08-20T11:37:00.499Z,34.83
2022-08-20T11:39:27.161Z,32.67
2022-08-20T11:42:14.524Z,34.15
2022-08-20T11:44:47.866Z,30.48
2022-08-20T11:47:34.534Z,33.03
2022-08-20T11:50:12.511Z,32.50
2022-08-20T11:52:45.501Z,30.27
2022-08-20T11:55:21.536Z,31.77
2022-08-20T11:58:03.473Z,32.03
2022-08-20T12:00:38.483Z,27.40
2022-08-20T12:03:08.866Z,26.40
2022-08-20T12:05:47.485Z,25.25
2022-08-20T12:08:27.146Z,24.25
2022-08-20T12:11:05.525Z,22.25
2022-08-20T12:13:47.535Z,22.15
2022-08-20T12:16:23.464Z,22.13
2022-08-20T12:18:50.169Z,21.48
2022-08-20T12:21:23.482Z,22.30
2022-08-20T12:23:50.124Z,21.65
2022-08-20T12:26:23.478Z,20.05
2022-08-20T12:28:50.106Z,21.45
2022-08-20T12:31:16.744Z,19.15
2022-08-20T12:33:49.540Z,23.33
2022-08-20T12:36:22.516Z,20.45
2022-08-20T12:38:55.477Z,18.83
2022-08-20T12:41:29.672Z,18.55
2022-08-20T12:43:56.322Z,18.17
2022-08-20T12:46:22.953Z,17.45
2022-08-20T12:48:56.538Z,19.02
2022-08-20T12:51:29.573Z,15.32
2022-08-20T12:54:02.904Z,13.82
2022-08-20T12:56:36.541Z,13.88
2022-08-20T12:59:03.194Z,12.98
2022-08-20T13:01:36.568Z,13.18
2022-08-20T13:04:03.868Z,12.25
2022-08-20T13:06:30.489Z,11.85
2022-08-20T13:09:03.465Z,11.52
2022-08-20T13:11:36.561Z,10.07
2022-08-20T13:14:03.746Z,10.43
2022-08-20T13:16:37.568Z,8.77
2022-08-20T13:19:10.553Z,9.70
2022-08-20T13:21:37.207Z,9.80
2022-08-20T13:24:04.344Z,10.00
2022-08-20T13:26:37.580Z,9.18
2022-08-20T13:29:05.214Z,8.73
2022-08-20T13:31:31.828Z,9.02
2022-08-20T13:34:04.538Z,7.88
2022-08-20T13:36:31.204Z,8.55
2022-08-20T13:38:57.840Z,10.05
2022-08-20T13:41:31.520Z,9.73
2022-08-20T13:43:58.170Z,8.32
2022-08-20T13:46:31.529Z,8.02
2022-08-20T13:48:58.154Z,8.63
2022-08-20T13:51:31.532Z,8.43
2022-08-20T13:54:06.494Z,7.75
2022-08-20T13:56:44.544Z,7.70
2022-08-20T13:59:12.428Z,8.38
2022-08-20T14:01:45.614Z,7.72
2022-08-20T14:04:12.282Z,7.50
2022-08-20T14:06:38.937Z,12.05
2022-08-20T14:09:12.543Z,9.00
2022-08-20T14:11:39.174Z,8.30
2022-08-20T14:14:12.524Z,9.40
2022-08-20T14:16:46.491Z,9.82
2022-08-20T14:19:19.532Z,10.50
2022-08-20T14:21:46.165Z,10.25
2022-08-20T14:24:12.772Z,12.65
2022-08-20T14:26:45.477Z,10.52
2022-08-20T14:29:12.096Z,13.85
2022-08-20T14:31:45.565Z,12.38
2022-08-20T14:34:18.518Z,13.93
2022-08-20T14:36:51.604Z,12.57
2022-08-20T14:39:20.457Z,13.98
2022-08-20T14:41:47.321Z,14.32
2022-08-20T14:44:20.557Z,12.73
2022-08-20T14:46:47.218Z,13.25
2022-08-20T14:49:20.538Z,14.63
2022-08-20T14:52:07.457Z,15.18
2022-08-20T14:54:41.574Z,13.98
2022-08-20T14:57:15.537Z,15.68
2022-08-20T14:59:42.910Z,15.80
2022-08-20T15:02:18.511Z,13.50
2022-08-20T15:04:54.225Z,16.35
2022-08-20T15:07:37.566Z,17.42
2022-08-20T15:10:16.489Z,19.33
2022-08-20T15:12:43.428Z,18.33
2022-08-20T15:15:19.493Z,19.50
2022-08-20T15:17:56.485Z,19.25
2022-08-20T15:20:33.548Z,18.80
2022-08-20T15:23:07.502Z,19.30
2022-08-20T15:25:36.665Z,20.33
2022-08-20T15:28:11.590Z,20.75
2022-08-20T15:30:42.118Z,20.90
2022-08-20T15:33:10.356Z,21.02
2022-08-20T15:35:43.596Z,22.63
2022-08-20T15:38:16.500Z,21.08
2022-08-20T15:40:49.563Z,23.48
2022-08-20T15:43:16.192Z,22.77
2022-08-20T15:45:42.850Z,23.35
2022-08-20T15:48:25.558Z,22.40
2022-08-20T15:51:21.542Z,23.48
2022-08-20T15:54:10.485Z,23.08
2022-08-20T15:57:21.693Z,30.10
2022-08-20T16:00:15.747Z,24.17
2022-08-20T16:03:17.580Z,25.65
2022-08-20T16:05:53.218Z,25.02
2022-08-20T16:08:38.575Z,25.10
2022-08-20T16:11:31.557Z,26.67
2022-08-20T16:14:10.680Z,26.65
2022-08-20T16:17:14.488Z,26.73
2022-08-20T16:20:01.953Z,26.73
2022-08-20T16:22:37.568Z,26.52
2022-08-20T16:25:11.570Z,29.63
2022-08-20T16:28:26.511Z,27.90
2022-08-20T16:31:00.701Z,26.00
2022-08-20T16:34:32.924Z,29.10
2022-08-20T16:37:06.321Z,26.00
2022-08-20T16:39:49.716Z,28.30
2022-08-20T16:42:20.969Z,26.55
2022-08-20T16:44:56.605Z,25.77
2022-08-20T16:47:37.573Z,26.58
2022-08-20T16:50:12.214Z,24.27
2022-08-20T16:52:53.638Z,27.48
2022-08-20T16:55:27.026Z,26.67
2022-08-20T16:58:01.513Z,32.47
2022-08-20T17:00:35.636Z,28.80
2022-08-20T17:03:40.122Z,33.57
2022-08-20T17:06:40.565Z,26.92
2022-08-20T17:09:11.680Z,27.08
2022-08-20T17:11:45.516Z,29.33
2022-08-20T17:14:18.810Z,31.83
2022-08-20T17:16:59.554Z,29.60
2022-08-20T17:19:30.409Z,27.77
2022-08-20T17:22:15.565Z,26.73
2022-08-20T17:24:48.513Z,29.67
2022-08-20T17:27:33.036Z,29.17
2022-08-20T17:30:41.566Z,29.95
2022-08-20T17:33:27.540Z,25.52
2022-08-20T17:36:00.697Z,28.80
2022-08-20T17:38:47.507Z,26.15
2022-08-20T17:41:29.379Z,29.48
2022-08-20T17:44:26.607Z,32.35
2022-08-20T17:46:54.044Z,29.83
2022-08-20T17:49:40.565Z,28.58
2022-08-20T17:52:25.542Z,26.90
2022-08-20T17:55:08.524Z,31.40
2022-08-20T17:57:38.501Z,26.90
2022-08-20T18:00:20.577Z,26.77
2022-08-20T18:02:47.241Z,28.60
2022-08-20T18:05:19.951Z,29.58
2022-08-20T18:08:19.501Z,30.25
2022-08-20T18:11:03.564Z,25.35
2022-08-20T18:13:48.409Z,25.95
2022-08-20T18:16:26.288Z,35.70
2022-08-20T18:19:08.700Z,25.80
2022-08-20T18:22:08.388Z,26.67
2022-08-20T18:25:15.585Z,28.88
2022-08-20T18:27:54.568Z,31.33
2022-08-20T18:30:30.562Z,25.25
2022-08-20T18:33:15.515Z,29.63
2022-08-20T18:35:46.314Z,26.42
2022-08-20T18:38:28.510Z,30.02
2022-08-20T18:41:10.296Z,31.08
2022-08-20T18:43:44.585Z,33.05
2022-08-20T18:46:29.561Z,29.85
2022-08-20T18:48:59.501Z,28.88
2022-08-20T18:51:42.518Z,30.10
2022-08-20T18:54:41.509Z,30.25
2022-08-20T18:57:25.306Z,28.90
2022-08-20T19:00:06.556Z,28.48
2022-08-20T19:02:37.161Z,29.67
2022-08-20T19:05:15.622Z,23.08
2022-08-20T19:07:49.074Z,28.45
2022-08-20T19:10:53.589Z,27.58
2022-08-20T19:13:46.215Z,30.65
2022-08-20T19:16:26.584Z,34.03
2022-08-20T19:18:55.276Z,30.98
2022-08-20T19:21:38.587Z,32.70
2022-08-20T19:24:13.522Z,32.15
2022-08-20T19:26:48.237Z,26.05
2022-08-20T19:29:27.590Z,28.60
2022-08-20T19:32:03.881Z,27.20
2022-08-20T19:34:38.585Z,29.42
2022-08-20T19:37:34.327Z,32.08
2022-08-20T19:40:30.570Z,38.55
2022-08-20T19:43:06.614Z,36.83
2022-08-20T19:45:40.817Z,38.10
2022-08-20T19:48:14.588Z,32.75
2022-08-20T19:51:19.560Z,39.35
2022-08-20T19:54:06.510Z,37.13
2022-08-20T19:56:47.526Z,39.90
2022-08-20T19:59:27.594Z,42.60
2022-08-20T20:02:01.533Z,41.88
2022-08-20T20:04:54.996Z,35.70
2022-08-20T20:07:27.736Z,36.70
2022-08-20T20:10:03.529Z,34.35
2022-08-20T20:12:33.090Z,38.42
2022-08-20T20:15:06.539Z,40.83
2022-08-20T20:17:35.813Z,47.38
2022-08-20T20:20:28.608Z,39.13
2022-08-20T20:23:06.661Z,52.15
2022-08-20T20:25:40.576Z,51.20
2022-08-20T20:28:18.956Z,45.65
2022-08-20T20:30:53.528Z,46.28
2022-08-20T20:33:44.305Z,43.70
2022-08-20T20:36:29.964Z,43.93
2022-08-20T20:39:05.517Z,47.85
2022-08-20T20:41:34.749Z,48.70
2022-08-20T20:44:25.560Z,51.72
2022-08-20T20:47:03.557Z,47.45
2022-08-20T20:49:55.528Z,47.90
2022-08-20T20:52:35.552Z,46.97
2022-08-20T20:55:09.252Z,46.22
2022-08-20T20:57:42.579Z,43.65
2022-08-20T21:00:13.859Z,42.38
2022-08-20T21:02:40.935Z,38.45
2022-08-20T21:05:14.526Z,39.40
2022-08-20T21:07:53.346Z,40.60
2022-08-20T21:10:36.541Z,41.20
2022-08-20T21:13:04.297Z,39.17
2022-08-20T21:15:32.862Z,37.35
2022-08-20T21:18:08.525Z,33.72
2022-08-20T21:20:42.540Z,40.03
2022-08-20T21:23:09.181Z,36.05
2022-08-20T21:25:42.593Z,30.45
2022-08-20T21:28:09.465Z,32.63
2022-08-20T21:30:42.542Z,27.27
2022-08-20T21:33:16.164Z,31.52
2022-08-20T21:35:49.534Z,25.77
2022-08-20T21:38:16.223Z,27.88
2022-08-20T21:40:42.906Z,28.77
2022-08-20T21:43:19.533Z,25.83
2022-08-20T21:45:53.587Z,30.08
2022-08-20T21:48:26.659Z,25.95
2022-08-20T21:50:53.264Z,23.00
2022-08-20T21:53:33.619Z,26.92
2022-08-20T21:56:00.910Z,27.70
2022-08-20T21:58:34.548Z,25.15
2022-08-20T22:01:10.589Z,31.33
2022-08-20T22:03:38.748Z,26.67
2022-08-20T22:06:18.532Z,26.90
2022-08-20T22:08:51.562Z,24.42
2022-08-20T22:11:18.617Z,24.45
2022-08-20T22:13:45.773Z,25.00
2022-08-20T22:16:22.545Z,29.00
2022-08-20T22:18:56.553Z,26.58
2022-08-20T22:21:26.970Z,25.60
2022-08-20T22:24:04.568Z,22.58
2022-08-20T22:26:34.018Z,21.88
2022-08-20T22:29:01.495Z,25.50
2022-08-20T22:31:37.549Z,26.38
2022-08-20T22:34:04.718Z,25.00
2022-08-20T22:36:39.557Z,25.40
2022-08-20T22:39:07.053Z,21.92
2022-08-20T22:41:33.933Z,22.65
2022-08-20T22:44:07.557Z,23.33
2022-08-20T22:46:37.736Z,23.02
2022-08-20T22:51:40.588Z,21.55
2022-08-20T22:54:25.543Z,20.92
2022-08-20T22:56:53.297Z,23.67
2022-08-20T22:59:27.573Z,23.70
2022-08-20T23:01:54.475Z,23.40
2022-08-20T23:04:37.576Z,24.23
2022-08-20T23:07:06.877Z,20.52
2022-08-20T23:09:39.728Z,21.87
2022-08-20T23:12:07.537Z,22.02
2022-08-20T23:14:41.533Z,18.00
2022-08-20T23:17:18.600Z,21.35
2022-08-20T23:19:53.615Z,20.05
2022-08-20T23:22:27.567Z,19.23
2022-08-20T23:24:57.344Z,20.95
2022-08-20T23:27:27.242Z,17.77
2022-08-20T23:30:00.557Z,19.75
2022-08-20T23:32:27.182Z,18.50
2022-08-20T23:35:00.565Z,21.20
2022-08-20T23:37:27.248Z,20.35
2022-08-20T23:40:00.867Z,16.77
2022-08-20T23:42:27.613Z,22.08
2022-08-20T23:45:00.541Z,17.48
2022-08-20T23:47:28.583Z,17.38
2022-08-20T23:50:01.557Z,24.45
2022-08-20T23:52:28.211Z,18.02
2022-08-20T23:55:08.569Z,19.50
2022-08-20T23:57:35.471Z,18.65
